Time;durP1;ratioP1;P1;durP2;ratioP2;P2;SDS_P1;SDS_P2;PMS_P1;PMS_P2;Temp;Humidity;BMP_temperature;BMP_pressure;BME280_temperature;BME280_humidity;BME280_pressure;Samples;Min_cycle;Max_cycle;Signal;HPM_P1;HPM_P2
2021/12/14 00:01:36;;;;;;;13.55;10.63;;;7.10;99.90;;;;;;5031117;28;20067;-77
2021/12/14 00:04:06;;;;;;;13.15;10.25;;;7.10;99.90;;;;;;5030829;28;20021;-76
2021/12/14 00:06:32;;;;;;;14.18;10.23;;;7.10;99.90;;;;;;5029428;28;20020;-77
2021/12/14 00:09:00;;;;;;;13.05;9.77;;;7.00;99.90;;;;;;5031718;28;20083;-77
2021/12/14 00:16:56;;;;;;;15.98;10.15;;;7.20;99.90;;;;;;5031601;28;20038;-77
2021/12/14 00:19:23;;;;;;;15.63;10.27;;;7.20;99.90;;;;;;5031468;28;20477;-77
2021/12/14 00:21:52;;;;;;;12.88;10.00;;;7.10;99.90;;;;;;5029673;28;20044;-77
2021/12/14 00:24:19;;;;;;;13.60;9.63;;;7.20;99.90;;;;;;5031978;28;20064;-77
2021/12/14 00:26:49;;;;;;;16.13;10.82;;;7.20;99.90;;;;;;5027520;28;20071;-79
2021/12/14 00:29:19;;;;;;;13.52;10.43;;;7.30;99.90;;;;;;5027610;28;20037;-78
2021/12/14 00:31:46;;;;;;;15.02;10.75;;;7.30;99.90;;;;;;5032261;28;20068;-76
2021/12/14 00:34:21;;;;;;;14.25;10.55;;;7.20;99.90;;;;;;5029792;28;20029;-78
2021/12/14 00:36:47;;;;;;;14.88;10.75;;;7.10;99.90;;;;;;5032421;28;20493;-78
2021/12/14 00:39:13;;;;;;;15.85;10.48;;;7.00;99.90;;;;;;5031497;28;20025;-77
2021/12/14 00:41:40;;;;;;;18.15;11.77;;;7.00;99.90;;;;;;5029592;28;20132;-75
2021/12/14 00:44:07;;;;;;;15.52;10.68;;;6.90;99.90;;;;;;5027748;28;20029;-75
2021/12/14 00:46:35;;;;;;;14.90;10.98;;;6.90;99.90;;;;;;5031305;28;20079;-75
2021/12/14 00:49:01;;;;;;;13.98;9.90;;;7.00;99.90;;;;;;5031947;28;20068;-74
2021/12/14 00:51:28;;;;;;;13.32;9.10;;;7.00;99.90;;;;;;5032453;28;20022;-73
2021/12/14 00:53:59;;;;;;;13.13;9.50;;;7.10;99.90;;;;;;5032124;28;20013;-75
2021/12/14 00:56:25;;;;;;;;;;;7.10;99.90;;;;;;5023863;28;20397;-74
2021/12/14 00:58:50;;;;;;;13.30;8.55;;;7.20;99.90;;;;;;5031079;28;19909;-74
2021/12/14 01:01:30;;;;;;;11.88;8.60;;;7.10;99.90;;;;;;5028411;28;20430;-75
2021/12/14 01:04:01;;;;;;;12.27;9.55;;;7.10;99.90;;;;;;5028227;28;20604;-75
2021/12/14 01:06:30;;;;;;;13.10;9.68;;;7.00;99.90;;;;;;5025833;28;20097;-75
2021/12/14 01:08:57;;;;;;;13.05;8.68;;;7.00;99.90;;;;;;5031732;28;20104;-75
2021/12/14 01:11:33;;;;;;;12.07;9.43;;;6.90;99.90;;;;;;5031928;28;20025;-75
2021/12/14 01:14:07;;;;;;;11.70;8.98;;;6.90;99.90;;;;;;5028577;28;20060;-75
2021/12/14 01:16:50;;;;;;;11.70;7.97;;;6.90;99.90;;;;;;5031588;28;20311;-75
2021/12/14 01:19:24;;;;;;;11.98;8.10;;;6.90;99.90;;;;;;5030682;28;20124;-75
2021/12/14 01:27:04;;;;;;;10.63;8.60;;;6.80;99.90;;;;;;5031134;28;20374;-75
2021/12/14 01:29:31;;;;;;;13.52;9.30;;;6.80;99.90;;;;;;5032429;28;20025;-73
2021/12/14 01:32:00;;;;;;;15.88;9.63;;;6.80;99.90;;;;;;5061798;28;20080;-75
2021/12/14 01:34:30;;;;;;;12.75;8.95;;;6.80;99.90;;;;;;5030852;28;20014;-75
2021/12/14 01:36:59;;;;;;;10.88;8.13;;;6.90;99.90;;;;;;5031202;28;20021;-75
2021/12/14 01:42:04;;;;;;;11.85;9.45;;;6.90;99.90;;;;;;5025722;28;20026;-75
2021/12/14 01:44:43;;;;;;;14.63;9.45;;;6.90;99.90;;;;;;5024961;28;20088;-74
2021/12/14 01:47:20;;;;;;;13.55;8.60;;;6.90;99.90;;;;;;5025398;28;20391;-75
2021/12/14 01:49:46;;;;;;;13.48;8.90;;;6.80;99.90;;;;;;5026328;28;20014;-75
2021/12/14 01:52:22;;;;;;;10.70;8.32;;;6.80;99.90;;;;;;5028536;28;20485;-75
2021/12/14 01:54:53;;;;;;;15.18;9.30;;;6.90;99.90;;;;;;5030531;28;20032;-75
2021/12/14 01:57:23;;;;;;;12.15;8.30;;;7.10;99.90;;;;;;5018125;28;20130;-76
2021/12/14 01:59:55;;;;;;;11.68;8.70;;;7.00;99.90;;;;;;5029647;28;20083;-75
2021/12/14 02:02:42;;;;;;;11.75;8.52;;;6.90;99.90;;;;;;5023735;28;20110;-75
2021/12/14 02:05:22;;;;;;;10.40;8.52;;;7.00;99.90;;;;;;5027200;28;20076;-76
2021/12/14 02:07:48;;;;;;;14.15;9.02;;;7.10;99.90;;;;;;5030502;28;20045;-75
2021/12/14 02:10:40;;;;;;;13.07;9.18;;;7.20;99.90;;;;;;5031090;28;20032;-74
2021/12/14 02:13:07;;;;;;;13.35;8.82;;;7.30;99.90;;;;;;5024486;28;20064;-74
2021/12/14 02:15:43;;;;;;;10.27;8.63;;;7.20;99.90;;;;;;5030235;28;20416;-74
2021/12/14 02:18:29;;;;;;;13.73;8.65;;;7.20;99.90;;;;;;5028909;28;20022;-74
2021/12/14 02:21:05;;;;;;;13.73;10.65;;;7.10;99.90;;;;;;5029893;28;20060;-75
2021/12/14 02:23:33;;;;;;;13.13;9.60;;;7.10;99.90;;;;;;5029630;28;20159;-75
2021/12/14 02:26:05;;;;;;;12.65;8.80;;;7.10;99.90;;;;;;5030253;28;20032;-75
2021/12/14 02:28:30;;;;;;;13.20;8.88;;;7.20;99.90;;;;;;5030647;28;20044;-75
2021/12/14 02:30:58;;;;;;;13.45;9.70;;;7.30;99.90;;;;;;5032939;28;20481;-75
2021/12/14 02:33:32;;;;;;;14.13;9.57;;;7.30;99.90;;;;;;5024044;28;20034;-75
2021/12/14 02:35:59;;;;;;;13.07;10.00;;;7.20;99.90;;;;;;5033381;28;20053;-75
2021/12/14 02:38:26;;;;;;;14.50;10.00;;;7.00;99.90;;;;;;5033705;28;20032;-75
2021/12/14 02:41:01;;;;;;;12.70;9.18;;;6.90;99.90;;;;;;5033277;28;20631;-74
2021/12/14 02:43:32;;;;;;;14.32;9.70;;;6.80;99.90;;;;;;5027647;28;20549;-75
2021/12/14 02:46:03;;;;;;;;;;;6.70;99.90;;;;;;5034130;28;20018;-75
2021/12/14 02:48:29;;;;;;;;;;;6.80;99.90;;;;;;5036593;28;20391;-74
2021/12/14 02:50:54;;;;;;;14.25;9.38;;;6.70;99.90;;;;;;5033753;28;19992;-74
2021/12/14 02:53:20;;;;;;;13.52;10.20;;;6.70;99.90;;;;;;5033084;28;20017;-75
2021/12/14 02:55:46;;;;;;;15.25;9.43;;;6.70;99.90;;;;;;5032325;28;20037;-75
2021/12/14 02:58:12;;;;;;;15.00;10.32;;;6.60;99.90;;;;;;5032183;28;20064;-74
2021/12/14 03:00:41;;;;;;;17.65;10.52;;;6.60;99.90;;;;;;5033089;28;20532;-75
2021/12/14 03:03:12;;;;;;;15.98;11.35;;;6.60;99.90;;;;;;5032326;28;20026;-74
2021/12/14 03:05:40;;;;;;;14.85;10.77;;;6.70;99.90;;;;;;5031414;28;20044;-75
2021/12/14 03:08:18;;;;;;;17.33;10.30;;;6.70;99.90;;;;;;5026987;28;20060;-75
2021/12/14 03:11:21;;;;;;;13.27;9.65;;;6.60;99.90;;;;;;5033776;28;20087;-75
2021/12/14 03:13:58;;;;;;;15.65;10.63;;;6.60;99.90;;;;;;5026388;28;20109;-75
2021/12/14 03:16:27;;;;;;;16.25;10.13;;;6.60;99.90;;;;;;5033680;28;20044;-75
2021/12/14 03:18:56;;;;;;;15.57;9.50;;;6.70;99.90;;;;;;5048408;28;20040;-75
2021/12/14 03:21:32;;;;;;;13.95;9.18;;;6.70;99.90;;;;;;5045172;28;20044;-75
2021/12/14 03:24:06;;;;;;;15.07;10.02;;;6.80;99.90;;;;;;5032247;28;20139;-75
2021/12/14 03:26:34;;;;;;;15.48;10.18;;;6.70;99.90;;;;;;5028223;28;20017;-76
2021/12/14 03:29:16;;;;;;;14.60;9.68;;;6.60;99.90;;;;;;5028401;28;20503;-75
2021/12/14 03:31:45;;;;;;;15.45;10.20;;;6.70;99.90;;;;;;5029009;28;20053;-74
2021/12/14 03:34:38;;;;;;;13.32;9.02;;;6.90;99.90;;;;;;5029940;28;20111;-75
2021/12/14 03:37:24;;;;;;;14.82;9.48;;;7.20;99.90;;;;;;5030287;28;20455;-76
2021/12/14 03:39:56;;;;;;;14.57;9.23;;;7.10;99.90;;;;;;5032841;28;20029;-74
2021/12/14 03:42:37;;;;;;;13.75;9.75;;;6.90;99.90;;;;;;5031774;28;20025;-74
2021/12/14 03:45:18;;;;;;;14.05;9.30;;;6.70;99.90;;;;;;5026270;28;20026;-75
2021/12/14 03:47:56;;;;;;;11.68;8.13;;;6.60;99.90;;;;;;5028242;28;20026;-75
2021/12/14 03:50:29;;;;;;;10.05;7.18;;;6.60;99.90;;;;;;5032799;28;20045;-74
2021/12/14 03:52:55;;;;;;;13.10;8.20;;;6.60;99.90;;;;;;5030872;28;20039;-76
2021/12/14 03:55:24;;;;;;;10.70;7.07;;;6.60;99.90;;;;;;5031100;28;20026;-75
2021/12/14 03:57:50;;;;;;;9.82;6.80;;;6.60;99.90;;;;;;5032808;28;20021;-75
2021/12/14 04:00:29;;;;;;;10.93;6.68;;;6.50;99.90;;;;;;5027412;28;20029;-76
2021/12/14 04:02:57;;;;;;;10.30;6.80;;;6.50;99.90;;;;;;5030971;28;20025;-75
2021/12/14 04:05:23;;;;;;;9.65;6.88;;;6.60;99.90;;;;;;5031484;28;20041;-75
2021/12/14 04:07:49;;;;;;;11.55;7.07;;;6.60;99.90;;;;;;5028448;28;20049;-75
2021/12/14 04:10:19;;;;;;;12.48;6.82;;;6.60;99.90;;;;;;5032260;28;20068;-74
2021/12/14 04:12:45;;;;;;;12.83;8.13;;;6.70;99.90;;;;;;5031096;28;20022;-75
2021/12/14 04:15:11;;;;;;;11.02;7.75;;;6.70;99.90;;;;;;5032072;28;20286;-75
2021/12/14 04:17:37;;;;;;;11.70;7.07;;;6.60;99.90;;;;;;5032480;28;20512;-75
2021/12/14 04:20:14;;;;;;;10.02;7.38;;;6.60;99.90;;;;;;5032027;28;20421;-74
2021/12/14 04:22:40;;;;;;;9.55;6.22;;;6.60;99.90;;;;;;5050428;28;20079;-75
2021/12/14 04:25:09;;;;;;;10.50;6.68;;;6.50;99.90;;;;;;5061327;28;20022;-74
2021/12/14 04:27:36;;;;;;;12.02;6.85;;;6.50;99.90;;;;;;5051235;28;20029;-74
2021/12/14 04:30:08;;;;;;;9.38;6.93;;;6.80;99.90;;;;;;5053980;28;20056;-74
2021/12/14 04:32:34;;;;;;;11.70;7.95;;;6.90;99.90;;;;;;5046760;28;20398;-75
2021/12/14 04:35:00;;;;;;;13.02;8.00;;;6.70;99.90;;;;;;5031524;28;20029;-74
2021/12/14 04:37:26;;;;;;;14.95;8.88;;;6.60;99.90;;;;;;5030435;28;20481;-75
2021/12/14 04:40:13;;;;;;;15.48;9.60;;;6.60;99.90;;;;;;5032115;28;20493;-75
2021/12/14 04:53:49;;;;;;;13.65;9.00;;;6.20;99.90;;;;;;5031242;28;20080;-75
2021/12/14 04:56:19;;;;;;;18.48;13.02;;;6.20;99.90;;;;;;5031150;28;20018;-76
2021/12/14 04:58:55;;;;;;;19.17;9.53;;;6.20;99.90;;;;;;5052428;28;20005;-76
2021/12/14 05:01:21;;;;;;;13.10;7.28;;;6.10;99.90;;;;;;5034403;28;20839;-75
2021/12/14 05:04:09;;;;;;;11.90;8.30;;;6.10;99.90;;;;;;5039001;28;20105;-75
2021/12/14 05:06:49;;;;;;;11.73;7.47;;;6.20;99.90;;;;;;5024387;28;20013;-75
2021/12/14 05:09:29;;;;;;;13.50;8.52;;;6.20;99.90;;;;;;5029898;28;20037;-75
2021/12/14 05:12:08;;;;;;;14.98;9.35;;;6.20;99.90;;;;;;5026809;28;20101;-73
2021/12/14 05:14:36;;;;;;;13.70;8.68;;;6.30;99.90;;;;;;5024483;28;20025;-75
2021/12/14 05:17:09;;;;;;;16.45;9.90;;;6.30;99.90;;;;;;5030638;28;20026;-75
2021/12/14 05:19:37;;;;;;;16.10;9.60;;;6.20;99.90;;;;;;5030382;28;20021;-75
2021/12/14 05:22:18;;;;;;;13.65;9.63;;;6.20;99.90;;;;;;5030912;28;20079;-75
2021/12/14 05:24:48;;;;;;;15.23;8.68;;;6.10;99.90;;;;;;5027350;28;20079;-74
2021/12/14 05:27:25;;;;;;;21.00;10.38;;;6.10;99.90;;;;;;5030679;28;20022;-74
2021/12/14 05:29:51;;;;;;;15.88;9.50;;;6.40;99.90;;;;;;5028668;28;20520;-74
2021/12/14 05:32:18;;;;;;;18.50;9.18;;;6.30;99.90;;;;;;5029454;28;20025;-75
2021/12/14 05:34:49;;;;;;;15.68;9.57;;;6.30;99.90;;;;;;5029897;28;20018;-75
2021/12/14 05:37:19;;;;;;;;;;;6.40;99.90;;;;;;5028532;28;20072;-74
2021/12/14 05:40:00;;;;;;;14.93;9.13;;;6.20;99.90;;;;;;5031205;28;20376;-74
2021/12/14 05:43:15;;;;;;;15.60;8.38;;;6.20;99.90;;;;;;5023585;28;20109;-75
2021/12/14 05:45:21;;;;;;;14.68;9.75;;;6.20;99.90;;;;;;5023417;28;20049;-75
2021/12/14 05:47:48;;;;;;;;;;;6.10;99.90;;;;;;5025209;28;20025;-75
2021/12/14 05:50:21;;;;;;;15.63;9.63;;;6.00;99.90;;;;;;5030937;28;19984;-75
2021/12/14 05:52:47;;;;;;;15.35;8.60;;;6.00;99.90;;;;;;5030884;28;20051;-75
2021/12/14 05:55:14;;;;;;;14.45;8.55;;;5.90;99.90;;;;;;5029566;28;20628;-74
2021/12/14 05:57:39;;;;;;;11.82;7.93;;;5.90;99.90;;;;;;5030612;28;20113;-76
2021/12/14 06:00:10;;;;;;;13.10;8.75;;;6.00;99.90;;;;;;5028896;28;20053;-76
2021/12/14 06:02:37;;;;;;;12.68;7.95;;;6.10;99.90;;;;;;5029000;28;20025;-76
2021/12/14 06:05:04;;;;;;;14.55;8.32;;;5.90;99.90;;;;;;5033422;28;20033;-75
2021/12/14 06:07:30;;;;;;;12.23;7.93;;;5.90;99.90;;;;;;5033256;28;20384;-75
2021/12/14 06:09:56;;;;;;;15.63;9.30;;;5.80;99.90;;;;;;5034042;28;20100;-76
2021/12/14 06:12:24;;;;;;;13.40;8.50;;;5.70;99.90;;;;;;5027718;28;20071;-76
2021/12/14 06:14:52;;;;;;;15.93;8.73;;;5.80;99.90;;;;;;5029227;28;20112;-75
2021/12/14 06:17:25;;;;;;;14.38;8.68;;;5.70;99.90;;;;;;5027061;28;20833;-75
2021/12/14 06:20:04;;;;;;;12.35;8.52;;;5.70;99.90;;;;;;5034107;28;20028;-76
2021/12/14 06:22:30;;;;;;;9.77;6.90;;;5.70;99.90;;;;;;5033377;28;20029;-75
2021/12/14 06:25:01;;;;;;;10.90;6.72;;;5.70;99.90;;;;;;5034377;28;20047;-75
2021/12/14 06:27:30;;;;;;;7.70;5.90;;;5.70;99.90;;;;;;5033389;28;20025;-74
2021/12/14 06:30:26;;;;;;;6.18;5.38;;;5.80;99.90;;;;;;5028014;28;20018;-75
2021/12/14 06:33:03;;;;;;;6.30;5.63;;;5.80;99.90;;;;;;5041636;28;20034;-76
2021/12/14 06:35:45;;;;;;;6.70;4.85;;;5.90;99.90;;;;;;5030309;28;20027;-75
2021/12/14 06:40:52;;;;;;;7.55;5.75;;;5.80;99.90;;;;;;5028718;28;20017;-76
2021/12/14 06:43:25;;;;;;;5.85;4.88;;;5.90;99.90;;;;;;5032123;28;20033;-74
2021/12/14 06:45:55;;;;;;;9.15;5.10;;;5.90;99.90;;;;;;5033202;28;20022;-75
2021/12/14 06:49:01;;;;;;;7.13;5.30;;;5.80;99.90;;;;;;5033149;28;20021;-75
2021/12/14 06:51:34;;;;;;;6.40;4.82;;;5.80;99.90;;;;;;5020412;28;20223;-75
2021/12/14 06:54:22;;;;;;;5.18;4.32;;;5.90;99.90;;;;;;5031540;28;20040;-75
2021/12/14 06:56:51;;;;;;;15.38;7.65;;;5.90;99.90;;;;;;5032152;28;20068;-74
2021/12/14 06:59:17;;;;;;;11.02;7.53;;;6.00;99.90;;;;;;5032415;28;20028;-75
2021/12/14 07:01:47;;;;;;;10.73;8.05;;;6.10;99.90;;;;;;5033970;28;20436;-75
2021/12/14 07:04:17;;;;;;;12.00;8.32;;;5.90;99.90;;;;;;5043633;28;20052;-74
2021/12/14 07:07:05;;;;;;;11.88;8.25;;;5.90;99.90;;;;;;5042386;28;20021;-74
2021/12/14 07:09:38;;;;;;;12.20;8.00;;;5.70;99.90;;;;;;5036410;28;20067;-74
2021/12/14 07:12:08;;;;;;;11.57;7.70;;;5.60;99.90;;;;;;5044171;28;20457;-73
2021/12/14 07:14:40;;;;;;;11.45;7.75;;;5.50;99.90;;;;;;5039292;28;20370;-73
2021/12/14 07:17:16;;;;;;;11.73;8.23;;;5.60;99.90;;;;;;5042018;28;20026;-73
2021/12/14 07:19:43;;;;;;;10.32;7.50;;;5.50;99.90;;;;;;5039139;28;20045;-74
2021/12/14 07:22:43;;;;;;;10.77;7.47;;;5.40;99.90;;;;;;5040154;28;20026;-73
2021/12/14 07:25:19;;;;;;;9.63;7.40;;;5.50;99.90;;;;;;5048479;28;20009;-73
2021/12/14 07:27:47;;;;;;;11.88;7.20;;;5.40;99.90;;;;;;5035213;28;20021;-73
2021/12/14 07:30:17;;;;;;;9.50;6.65;;;5.30;99.90;;;;;;5032355;28;20017;-73
2021/12/14 07:32:47;;;;;;;11.63;8.00;;;5.50;99.90;;;;;;5028467;28;20017;-74
2021/12/14 07:35:19;;;;;;;18.40;8.82;;;5.60;99.90;;;;;;5037366;28;20025;-73
2021/12/14 07:37:45;;;;;;;11.32;7.82;;;5.70;99.90;;;;;;5048791;28;20453;-71
2021/12/14 07:40:13;;;;;;;14.63;7.28;;;5.50;99.90;;;;;;5043649;28;20091;-77
2021/12/14 07:42:39;;;;;;;13.00;8.43;;;5.70;99.90;;;;;;5044490;28;20452;-74
2021/12/14 07:45:07;;;;;;;11.60;7.85;;;5.70;99.90;;;;;;5040764;28;20025;-72
2021/12/14 07:47:32;;;;;;;9.20;7.32;;;5.60;99.90;;;;;;5044461;28;20030;-73
2021/12/14 07:49:59;;;;;;;15.02;8.55;;;5.50;99.90;;;;;;5036054;28;20032;-73
2021/12/14 07:52:33;;;;;;;9.98;7.00;;;5.50;99.90;;;;;;5032901;28;20029;-73
2021/12/14 07:55:03;;;;;;;9.23;7.25;;;5.40;99.90;;;;;;5035664;28;20033;-74
2021/12/14 07:57:35;;;;;;;10.47;7.60;;;5.50;99.90;;;;;;5033997;28;20017;-75
2021/12/14 08:00:11;;;;;;;8.85;7.03;;;5.60;99.90;;;;;;5031362;28;20029;-73
2021/12/14 08:02:47;;;;;;;9.23;6.18;;;5.60;99.90;;;;;;5034738;28;20089;-73
2021/12/14 08:05:29;;;;;;;13.02;5.80;;;5.80;99.90;;;;;;5021479;28;20026;-72
2021/12/14 08:08:18;;;;;;;9.43;6.40;;;5.80;99.90;;;;;;5028773;28;20028;-73
2021/12/14 08:11:28;;;;;;;8.88;6.15;;;5.90;99.90;;;;;;5034535;28;20025;-77
2021/12/14 08:13:57;;;;;;;9.57;6.30;;;6.10;99.90;;;;;;5029119;28;20087;-72
2021/12/14 08:16:23;;;;;;;8.48;6.60;;;6.00;99.90;;;;;;5031317;28;20021;-72
2021/12/14 08:18:49;;;;;;;7.28;5.75;;;6.00;99.90;;;;;;5050926;28;20033;-73
2021/12/14 08:21:22;;;;;;;10.70;6.03;;;6.00;99.90;;;;;;5035380;28;20092;-74
2021/12/14 08:24:03;;;;;;;6.60;5.63;;;6.00;99.90;;;;;;5032385;28;20129;-74
2021/12/14 08:26:34;;;;;;;;;;;6.00;99.90;;;;;;5025387;28;20017;-73
2021/12/14 08:29:16;;;;;;;8.73;6.68;;;5.90;99.90;;;;;;5030169;28;19905;-73
2021/12/14 08:31:46;;;;;;;8.02;6.88;;;5.70;99.90;;;;;;5032779;28;20477;-74
2021/12/14 08:34:23;;;;;;;7.07;5.93;;;5.60;99.90;;;;;;5031590;28;20036;-73
2021/12/14 08:37:03;;;;;;;6.63;5.93;;;5.80;99.90;;;;;;5029931;28;20021;-72
2021/12/14 08:39:32;;;;;;;6.90;5.78;;;6.10;99.90;;;;;;5028273;28;20118;-74
2021/12/14 08:42:17;;;;;;;8.05;6.03;;;6.30;99.90;;;;;;5032694;28;20029;-75
2021/12/14 08:44:52;;;;;;;8.90;6.22;;;6.30;99.90;;;;;;5032006;28;20021;-77
2021/12/14 08:47:34;;;;;;;6.57;5.55;;;6.20;99.90;;;;;;5033174;28;20056;-78
2021/12/14 08:50:07;;;;;;;6.72;5.97;;;6.10;99.90;;;;;;5030943;28;20109;-78
2021/12/14 08:52:33;;;;;;;7.30;5.97;;;6.00;99.90;;;;;;5034330;28;20024;-78
2021/12/14 08:55:01;;;;;;;7.05;6.05;;;6.10;99.90;;;;;;5032812;28;20393;-79
2021/12/14 08:57:29;;;;;;;7.13;5.63;;;6.30;99.90;;;;;;5025334;28;20025;-77
2021/12/14 09:00:00;;;;;;;6.53;5.57;;;6.30;99.90;;;;;;5034862;28;20021;-76
2021/12/14 09:02:31;;;;;;;8.25;5.78;;;6.20;99.90;;;;;;5032836;28;20017;-77
2021/12/14 09:05:03;;;;;;;6.65;5.75;;;6.30;99.90;;;;;;5030718;28;20032;-77
2021/12/14 09:07:30;;;;;;;6.75;5.55;;;6.50;99.90;;;;;;5024154;28;20111;-77
2021/12/14 09:09:58;;;;;;;7.00;6.07;;;6.60;99.90;;;;;;5027139;28;20028;-77
2021/12/14 09:12:26;;;;;;;7.47;6.10;;;6.60;99.90;;;;;;5031449;28;20117;-79
2021/12/14 09:14:55;;;;;;;6.03;5.30;;;6.70;99.90;;;;;;5037436;28;20014;-79
2021/12/14 09:17:22;;;;;;;7.18;5.93;;;6.70;99.90;;;;;;5032555;28;20029;-78
2021/12/14 09:19:56;;;;;;;6.35;5.22;;;6.70;99.90;;;;;;5026075;28;20017;-78
2021/12/14 09:22:27;;;;;;;9.73;5.45;;;6.80;99.90;;;;;;5027232;28;20076;-78
2021/12/14 09:24:54;;;;;;;8.55;6.03;;;6.60;99.90;;;;;;5035857;28;20067;-79
2021/12/14 09:27:23;;;;;;;6.72;6.03;;;6.90;99.90;;;;;;5032390;28;20029;-77
2021/12/14 09:29:50;;;;;;;8.75;6.18;;;6.90;99.90;;;;;;5033407;28;20516;-79
2021/12/14 09:32:22;;;;;;;10.63;6.50;;;7.10;99.90;;;;;;5036448;28;20121;-79
2021/12/14 09:34:48;;;;;;;6.70;5.97;;;7.20;99.90;;;;;;5032961;28;20063;-77
2021/12/14 09:37:15;;;;;;;8.65;6.65;;;7.40;99.90;;;;;;5033115;28;20025;-77
2021/12/14 09:39:46;;;;;;;6.22;5.35;;;7.00;99.90;;;;;;5039088;28;20025;-79
2021/12/14 09:42:16;;;;;;;8.45;6.07;;;7.10;99.90;;;;;;5029958;28;20118;-77
2021/12/14 09:44:43;;;;;;;6.90;5.57;;;7.50;99.90;;;;;;5026134;28;20111;-80
2021/12/14 09:47:16;;;;;;;8.07;6.18;;;7.70;99.90;;;;;;5026574;28;20268;-79
2021/12/14 09:49:44;;;;;;;6.78;5.88;;;7.70;99.90;;;;;;5026723;28;20030;-77
2021/12/14 09:52:20;;;;;;;13.02;6.43;;;7.70;99.90;;;;;;5029792;28;20021;-78
2021/12/14 09:54:47;;;;;;;9.65;7.63;;;7.80;99.90;;;;;;5041858;28;20024;-78
2021/12/14 09:57:24;;;;;;;7.70;6.55;;;7.70;99.90;;;;;;5036972;28;20541;-79
2021/12/14 09:59:52;;;;;;;8.57;7.20;;;7.70;99.90;;;;;;5035876;28;20503;-78
2021/12/14 10:02:36;;;;;;;10.88;7.15;;;7.60;99.90;;;;;;5036450;28;20053;-78
2021/12/14 10:05:19;;;;;;;10.80;7.13;;;7.80;99.90;;;;;;5035028;28;20040;-76
2021/12/14 10:07:46;;;;;;;8.70;6.78;;;7.70;99.90;;;;;;5032722;28;20120;-79
2021/12/14 10:10:14;;;;;;;7.93;7.03;;;7.90;99.90;;;;;;5034112;28;20428;-78
2021/12/14 10:12:50;;;;;;;8.63;6.32;;;7.90;99.90;;;;;;5036412;28;20222;-78
2021/12/14 10:15:24;;;;;;;9.50;7.00;;;7.90;99.90;;;;;;5034771;28;20026;-78
2021/12/14 10:17:53;;;;;;;7.93;7.13;;;7.60;99.90;;;;;;5035691;28;20018;-79
2021/12/14 10:20:28;;;;;;;10.27;7.63;;;7.50;99.90;;;;;;5037853;28;20036;-80
2021/12/14 10:22:54;;;;;;;9.52;7.05;;;7.60;99.90;;;;;;5034571;28;20037;-78
2021/12/14 10:25:23;;;;;;;10.20;7.28;;;7.80;99.90;;;;;;5036453;28;20033;-79
2021/12/14 10:27:49;;;;;;;9.20;6.97;;;7.80;99.90;;;;;;5035993;28;20045;-77
2021/12/14 10:30:33;;;;;;;9.25;6.70;;;7.40;99.90;;;;;;5035036;28;20036;-80
2021/12/14 10:33:00;;;;;;;10.45;7.05;;;7.60;99.90;;;;;;5039300;28;20525;-79
2021/12/14 10:35:35;;;;;;;11.57;7.03;;;7.60;99.90;;;;;;5034473;28;20047;-76
2021/12/14 10:39:08;;;;;;;10.32;6.75;;;7.90;99.90;;;;;;5028931;28;20105;-78
2021/12/14 10:43:57;;;;;;;11.15;7.68;;;7.70;99.90;;;;;;5032142;28;20036;-79
2021/12/14 10:46:30;;;;;;;14.20;7.07;;;8.00;99.90;;;;;;5036595;28;20033;-77
2021/12/14 10:48:57;;;;;;;8.27;7.35;;;8.10;99.90;;;;;;5033448;28;20498;-79
2021/12/14 10:51:29;;;;;;;12.65;8.18;;;8.00;99.90;;;;;;5034449;28;20029;-78
2021/12/14 10:53:57;;;;;;;11.13;7.13;;;8.30;99.90;;;;;;5034465;28;20460;-78
2021/12/14 10:56:35;;;;;;;13.05;8.05;;;7.90;99.90;;;;;;5032852;28;20014;-78
2021/12/14 10:59:03;;;;;;;11.90;7.53;;;7.80;99.90;;;;;;5030334;28;20030;-79
2021/12/14 11:01:33;;;;;;;10.00;7.75;;;8.20;99.90;;;;;;5033772;28;20041;-79
2021/12/14 11:04:06;;;;;;;12.65;6.40;;;8.40;99.90;;;;;;5027419;28;20057;-76
2021/12/14 11:06:33;;;;;;;10.02;6.78;;;8.50;99.90;;;;;;5030835;28;20018;-77
2021/12/14 11:11:43;;;;;;;11.73;8.10;;;8.30;99.90;;;;;;5028792;28;20586;-76
2021/12/14 11:14:13;;;;;;;11.10;7.70;;;8.00;99.90;;;;;;5033605;28;20485;-76
2021/12/14 11:19:59;;;;;;;9.35;7.85;;;8.60;99.90;;;;;;5026032;28;20508;-78
2021/12/14 11:22:48;;;;;;;8.35;7.00;;;8.70;99.90;;;;;;5026714;28;20037;-76
2021/12/14 11:25:19;;;;;;;10.88;6.22;;;8.60;99.90;;;;;;5034127;28;20064;-76
2021/12/14 11:27:49;;;;;;;13.77;7.43;;;8.70;99.90;;;;;;5031593;28;20387;-76
2021/12/14 11:30:35;;;;;;;12.25;6.68;;;8.80;99.90;;;;;;5033963;28;20040;-77
2021/12/14 11:33:21;;;;;;;11.15;7.13;;;8.80;99.90;;;;;;5028047;28;20033;-77
2021/12/14 11:35:50;;;;;;;8.88;7.90;;;8.90;99.90;;;;;;5034115;28;20029;-77
2021/12/14 11:38:38;;;;;;;10.07;7.13;;;8.90;99.90;;;;;;5034436;28;20393;-76
2021/12/14 11:41:22;;;;;;;7.18;6.43;;;8.80;99.90;;;;;;5031324;28;20021;-76
2021/12/14 11:43:56;;;;;;;10.77;8.25;;;8.90;99.90;;;;;;5030990;28;20057;-76
2021/12/14 11:46:23;;;;;;;11.25;8.02;;;8.80;99.90;;;;;;5032083;28;20021;-76
2021/12/14 11:48:49;;;;;;;10.60;7.50;;;8.70;99.90;;;;;;5038562;28;20481;-77
2021/12/14 11:51:15;;;;;;;8.00;7.18;;;8.60;99.90;;;;;;5032141;28;20030;-76
2021/12/14 11:53:49;;;;;;;11.18;7.63;;;8.60;99.90;;;;;;5038330;28;20025;-76
2021/12/14 11:56:18;;;;;;;10.27;7.40;;;8.50;99.90;;;;;;5051321;28;20049;-75
2021/12/14 11:58:48;;;;;;;10.57;7.68;;;8.40;99.90;;;;;;5062131;28;20065;-75
2021/12/14 12:01:33;;;;;;;8.25;7.45;;;8.40;99.90;;;;;;5056386;28;20018;-75
2021/12/14 12:04:05;;;;;;;8.45;7.65;;;8.60;99.90;;;;;;5066372;28;20029;-76
2021/12/14 12:09:33;;;;;;;9.95;7.57;;;9.10;99.90;;;;;;5042239;28;20049;-77
2021/12/14 12:12:13;;;;;;;9.43;8.00;;;8.90;99.90;;;;;;5033544;28;20033;-77
2021/12/14 12:14:47;;;;;;;9.52;7.45;;;8.80;99.90;;;;;;5032064;28;20342;-76
2021/12/14 12:17:22;;;;;;;10.68;7.35;;;8.90;99.90;;;;;;5032914;28;20075;-76
2021/12/14 12:19:52;;;;;;;9.57;8.57;;;9.00;99.90;;;;;;5033631;28;20083;-76
2021/12/14 12:22:17;;;;;;;14.10;8.33;;;8.80;99.90;;;;;;5030290;28;20033;-76
2021/12/14 12:24:53;;;;;;;9.60;7.57;;;9.00;99.90;;;;;;5032857;28;20028;-76
2021/12/14 12:27:31;;;;;;;11.27;8.32;;;8.70;99.90;;;;;;5028707;28;20120;-77
2021/12/14 12:30:37;;;;;;;8.50;7.57;;;8.90;99.90;;;;;;5033171;28;20029;-76
2021/12/14 12:33:26;;;;;;;10.35;8.48;;;8.70;99.90;;;;;;5028091;28;20041;-76
2021/12/14 12:36:10;;;;;;;9.13;8.23;;;8.90;99.90;;;;;;5033215;28;20025;-76
2021/12/14 12:38:50;;;;;;;10.77;7.47;;;9.10;99.90;;;;;;5024096;28;20117;-75
2021/12/14 12:41:37;;;;;;;11.40;7.25;;;9.10;99.90;;;;;;5031744;28;20044;-77
2021/12/14 12:44:14;;;;;;;11.20;7.90;;;9.00;99.90;;;;;;5032726;28;20118;-77
2021/12/14 12:46:54;;;;;;;10.32;7.75;;;9.00;99.90;;;;;;5031481;28;20025;-76
2021/12/14 12:49:25;;;;;;;9.38;7.75;;;9.00;99.90;;;;;;5032925;28;20022;-76
2021/12/14 12:52:13;;;;;;;9.95;7.20;;;9.10;99.90;;;;;;5030629;28;20509;-75
2021/12/14 12:55:06;;;;;;;8.30;7.38;;;9.00;99.90;;;;;;5032019;28;20025;-77
2021/12/14 12:57:55;;;;;;;10.63;7.88;;;9.00;99.90;;;;;;5032078;28;20386;-77
2021/12/14 13:00:35;;;;;;;8.52;7.63;;;8.90;99.90;;;;;;5031576;28;20023;-76
2021/12/14 13:03:13;;;;;;;13.88;8.18;;;8.90;99.90;;;;;;5029174;28;20029;-76
2021/12/14 13:05:57;;;;;;;9.40;8.50;;;9.00;99.90;;;;;;5028226;28;20047;-77
2021/12/14 13:08:38;;;;;;;9.65;8.27;;;8.80;99.90;;;;;;5037615;28;20639;-77
2021/12/14 13:11:15;;;;;;;11.50;9.05;;;8.80;99.90;;;;;;5029310;28;20022;-76
2021/12/14 13:13:53;;;;;;;9.80;8.45;;;8.80;99.90;;;;;;5029862;28;20374;-77
2021/12/14 13:16:21;;;;;;;10.43;8.93;;;8.80;99.90;;;;;;5029070;28;20040;-76
2021/12/14 13:19:04;;;;;;;16.98;9.63;;;8.80;99.90;;;;;;5030855;28;20021;-76
2021/12/14 13:21:41;;;;;;;13.68;9.57;;;8.80;99.90;;;;;;5030741;28;20025;-78
2021/12/14 13:24:14;;;;;;;9.23;7.10;;;8.70;99.90;;;;;;5026434;28;20046;-77
2021/12/14 13:27:01;;;;;;;9.63;7.22;;;8.70;99.90;;;;;;5030302;28;20075;-76
2021/12/14 13:29:53;;;;;;;9.90;8.18;;;8.30;99.90;;;;;;5029925;28;20018;-76
2021/12/14 13:32:24;;;;;;;9.05;7.90;;;8.10;99.90;;;;;;5033880;28;20037;-76
2021/12/14 13:34:58;;;;;;;10.07;7.97;;;8.30;99.90;;;;;;5028322;28;20033;-77
2021/12/14 13:37:39;;;;;;;9.45;7.72;;;8.30;99.90;;;;;;5024362;28;20010;-76
2021/12/14 13:40:17;;;;;;;;;;;8.20;99.90;;;;;;5030217;28;20029;-76
2021/12/14 13:43:12;;;;;;;9.63;7.93;;;8.20;99.90;;;;;;5031527;28;20316;-76
2021/12/14 13:45:45;;;;;;;11.55;7.35;;;8.10;99.90;;;;;;5017012;28;20048;-75
2021/12/14 13:48:14;;;;;;;8.90;7.68;;;7.70;99.90;;;;;;5029573;28;20040;-75
2021/12/14 13:50:45;;;;;;;9.80;8.27;;;7.60;99.90;;;;;;5025372;28;20047;-76
2021/12/14 13:53:11;;;;;;;;;;;7.40;99.90;;;;;;5024234;28;20090;-76
2021/12/14 13:55:38;;;;;;;10.20;8.95;;;7.40;99.90;;;;;;5030101;28;19909;-76
2021/12/14 13:58:11;;;;;;;10.77;8.77;;;7.40;99.90;;;;;;5031419;28;20381;-78
2021/12/14 14:00:46;;;;;;;11.57;8.52;;;7.40;99.90;;;;;;5029672;28;20432;-76